Time;durP1;ratioP1;P1;durP2;ratioP2;P2;SDS_P1;SDS_P2;PMS_P1;PMS_P2;Temp;Humidity;BMP_temperature;BMP_pressure;BME280_temperature;BME280_humidity;BME280_pressure;Samples;Min_cycle;Max_cycle;Signal;HPM_P1;HPM_P2
2023/04/27 00:01:13;;;;;;;15.98;5.22;;;6.50;99.90;;;;;;5047288;28;20440;-78
2023/04/27 00:03:40;;;;;;;14.70;5.60;;;6.50;99.90;;;;;;5061664;28;20399;-78
2023/04/27 00:06:07;;;;;;;11.40;4.93;;;6.40;99.90;;;;;;5062337;28;20032;-77
2023/04/27 00:08:33;;;;;;;15.10;6.00;;;6.40;99.90;;;;;;5076753;28;20028;-77
2023/04/27 00:10:59;;;;;;;13.02;5.75;;;6.40;99.90;;;;;;5056636;28;20076;-77
2023/04/27 00:13:25;;;;;;;12.82;5.70;;;6.40;99.90;;;;;;5081782;28;20665;-77
2023/04/27 00:15:51;;;;;;;12.68;4.80;;;6.30;99.90;;;;;;5061294;28;20886;-77
2023/04/27 00:18:17;;;;;;;14.93;5.93;;;6.30;99.90;;;;;;5059829;28;20049;-77
2023/04/27 00:20:43;;;;;;;13.13;5.00;;;6.20;99.90;;;;;;5060681;28;20032;-77
2023/04/27 00:23:09;;;;;;;15.55;5.35;;;6.10;99.90;;;;;;5060392;28;20035;-77
2023/04/27 00:25:35;;;;;;;11.73;4.93;;;6.20;99.90;;;;;;5061253;28;20033;-77
2023/04/27 00:28:01;;;;;;;11.57;5.32;;;6.10;99.90;;;;;;5059525;28;20029;-78
2023/04/27 00:30:26;;;;;;;16.75;5.75;;;6.10;99.90;;;;;;5066340;28;20075;-77
2023/04/27 00:32:52;;;;;;;12.13;5.18;;;6.20;99.90;;;;;;5061397;28;20024;-77
2023/04/27 00:35:18;;;;;;;13.60;5.60;;;6.10;99.90;;;;;;5077194;28;20109;-77
2023/04/27 00:37:43;;;;;;;11.57;5.55;;;6.10;99.90;;;;;;5060472;28;20101;-77
2023/04/27 00:40:09;;;;;;;13.10;5.32;;;6.00;99.90;;;;;;5044323;28;20507;-77
2023/04/27 00:42:35;;;;;;;17.70;5.97;;;5.90;99.90;;;;;;5040424;28;20476;-77
2023/04/27 00:45:01;;;;;;;16.15;5.68;;;5.90;99.90;;;;;;5055601;28;20036;-77
2023/04/27 00:47:28;;;;;;;10.05;5.05;;;5.90;99.90;;;;;;5059493;28;20127;-77
2023/04/27 00:49:55;;;;;;;9.70;5.30;;;5.80;99.90;;;;;;5063860;28;20104;-78
2023/04/27 00:52:20;;;;;;;17.33;6.28;;;5.90;99.90;;;;;;5050860;28;20048;-77
2023/04/27 00:54:49;;;;;;;9.82;5.57;;;5.80;99.90;;;;;;5064894;28;20795;-76
2023/04/27 00:57:15;;;;;;;12.35;6.03;;;5.80;99.90;;;;;;5066820;28;20035;-77
2023/04/27 00:59:41;;;;;;;15.00;5.78;;;5.80;99.90;;;;;;5063006;28;20024;-77
2023/04/27 01:02:08;;;;;;;11.55;5.65;;;5.70;99.90;;;;;;5048961;28;20406;-76
2023/04/27 01:04:35;;;;;;;15.27;6.53;;;5.70;99.90;;;;;;5065223;28;20487;-77
2023/04/27 01:07:01;;;;;;;12.43;6.72;;;5.60;99.90;;;;;;5068414;28;20029;-78
2023/04/27 01:09:27;;;;;;;14.70;7.32;;;5.70;99.90;;;;;;5074333;28;20549;-77
2023/04/27 01:11:53;;;;;;;15.48;7.22;;;5.60;99.90;;;;;;5081047;28;20119;-77
2023/04/27 01:14:18;;;;;;;20.77;6.82;;;5.70;99.90;;;;;;5061656;28;20111;-77
2023/04/27 01:16:45;;;;;;;16.33;7.50;;;5.70;99.90;;;;;;5065069;28;20060;-77
2023/04/27 01:19:10;;;;;;;16.40;8.32;;;5.70;99.90;;;;;;5077295;28;20060;-78
2023/04/27 01:21:36;;;;;;;16.05;7.97;;;5.70;99.90;;;;;;5068220;28;20027;-78
2023/04/27 01:24:06;;;;;;;13.50;7.75;;;5.70;99.90;;;;;;5063414;28;20070;-78
2023/04/27 01:26:32;;;;;;;14.07;8.07;;;5.70;99.90;;;;;;5052218;28;20546;-77
2023/04/27 01:28:58;;;;;;;18.73;9.27;;;5.70;99.90;;;;;;5056986;28;20702;-77
2023/04/27 01:31:24;;;;;;;15.70;8.32;;;5.70;99.90;;;;;;5080076;28;20043;-77
2023/04/27 01:33:50;;;;;;;16.13;8.00;;;5.70;99.90;;;;;;5066168;28;20033;-77
2023/04/27 01:36:15;;;;;;;17.70;8.52;;;5.70;99.90;;;;;;5059717;28;20086;-78
2023/04/27 01:38:41;;;;;;;17.55;8.18;;;5.60;99.90;;;;;;5072248;28;20396;-77
2023/04/27 01:41:08;;;;;;;17.45;9.35;;;5.70;99.90;;;;;;5086030;28;20483;-78
2023/04/27 01:43:34;;;;;;;27.23;9.57;;;5.60;99.90;;;;;;5102230;28;20027;-77
2023/04/27 01:46:08;;;;;;;18.25;8.80;;;5.60;99.90;;;;;;5062323;28;20063;-78
2023/04/27 01:48:34;;;;;;;18.08;8.80;;;5.60;99.90;;;;;;5063078;28;20487;-77
2023/04/27 01:51:00;;;;;;;20.75;8.75;;;5.60;99.90;;;;;;5076247;28;20048;-77
2023/04/27 01:53:26;;;;;;;18.15;8.77;;;5.60;99.90;;;;;;5064293;28;20466;-77
2023/04/27 01:55:52;;;;;;;17.30;9.60;;;5.50;99.90;;;;;;5061042;28;20124;-77
2023/04/27 01:58:17;;;;;;;19.98;9.35;;;5.50;99.90;;;;;;5063569;28;20016;-76
2023/04/27 02:00:43;;;;;;;19.83;9.43;;;5.50;99.90;;;;;;5070475;28;20383;-77
2023/04/27 02:03:08;;;;;;;22.33;10.05;;;5.60;99.90;;;;;;5062699;28;20042;-76
2023/04/27 02:05:34;;;;;;;19.17;8.85;;;5.50;99.90;;;;;;5056866;28;20037;-77
2023/04/27 02:08:00;;;;;;;19.17;9.88;;;5.50;99.90;;;;;;5050972;28;20172;-77
2023/04/27 02:10:26;;;;;;;18.73;9.25;;;5.50;99.90;;;;;;5062441;28;20063;-77
2023/04/27 02:12:51;;;;;;;19.42;9.27;;;5.40;99.90;;;;;;5063207;28;20694;-76
2023/04/27 02:15:17;;;;;;;21.48;11.23;;;5.40;99.90;;;;;;5072074;28;20057;-77
2023/04/27 02:17:42;;;;;;;18.70;9.35;;;5.40;99.90;;;;;;5047707;28;20086;-77
2023/04/27 02:20:09;;;;;;;19.70;10.05;;;5.40;99.90;;;;;;5070700;28;20406;-77
2023/04/27 02:22:35;;;;;;;21.17;9.95;;;5.40;99.90;;;;;;5061989;28;20024;-76
2023/04/27 02:25:02;;;;;;;25.00;9.77;;;5.30;99.90;;;;;;5058699;28;20032;-77
2023/04/27 02:27:27;;;;;;;20.83;10.13;;;5.30;99.90;;;;;;5062152;28;20027;-76
2023/04/27 02:29:53;;;;;;;21.50;9.70;;;5.30;99.90;;;;;;5063007;28;20131;-76
2023/04/27 02:32:18;;;;;;;19.83;10.30;;;5.30;99.90;;;;;;5060819;28;20048;-77
2023/04/27 02:34:44;;;;;;;22.13;10.85;;;5.30;99.90;;;;;;5073081;28;20051;-76
2023/04/27 02:37:09;;;;;;;17.60;10.32;;;5.30;99.90;;;;;;5080061;28;20036;-76
2023/04/27 02:39:35;;;;;;;19.52;10.63;;;5.30;99.90;;;;;;5058872;28;20035;-77
2023/04/27 02:42:02;;;;;;;21.52;10.63;;;5.30;99.90;;;;;;5081447;28;20066;-77
2023/04/27 02:44:28;;;;;;;22.15;10.10;;;5.20;99.90;;;;;;5062862;28;20037;-76
2023/04/27 02:46:53;;;;;;;20.30;10.18;;;5.20;99.90;;;;;;5078738;28;20046;-76
2023/04/27 02:49:19;;;;;;;16.85;9.18;;;5.20;99.90;;;;;;5056938;28;20048;-77
2023/04/27 02:51:45;;;;;;;21.98;10.75;;;5.10;99.90;;;;;;5063068;28;20017;-76
2023/04/27 02:54:10;;;;;;;20.35;10.55;;;5.10;99.90;;;;;;5050471;28;20035;-77
2023/04/27 02:56:36;;;;;;;19.02;9.95;;;5.00;99.90;;;;;;5083471;28;20064;-77
2023/04/27 02:59:02;;;;;;;18.30;8.77;;;4.90;99.90;;;;;;5062768;28;20028;-76
2023/04/27 03:01:27;;;;;;;20.20;9.45;;;4.90;99.90;;;;;;5059258;28;20150;-76
2023/04/27 03:03:53;;;;;;;15.50;8.88;;;4.80;99.90;;;;;;5061108;28;20119;-76
2023/04/27 03:06:18;;;;;;;25.90;10.25;;;4.80;99.90;;;;;;5046969;28;20146;-77
2023/04/27 03:08:44;;;;;;;23.08;10.80;;;4.80;99.90;;;;;;5076473;28;20082;-77
2023/04/27 03:11:11;;;;;;;19.08;10.88;;;4.80;99.90;;;;;;5064073;28;20255;-76
2023/04/27 03:13:40;;;;;;;19.75;11.10;;;4.80;99.90;;;;;;5064960;28;20043;-76
2023/04/27 03:16:10;;;;;;;26.33;11.82;;;4.80;99.90;;;;;;5059951;28;20111;-76
2023/04/27 03:18:36;;;;;;;24.77;12.57;;;4.90;99.90;;;;;;5082404;28;20044;-76
2023/04/27 03:21:09;;;;;;;23.05;11.88;;;4.90;99.90;;;;;;5079923;28;20479;-77
2023/04/27 03:23:35;;;;;;;20.88;12.00;;;4.80;99.90;;;;;;5068219;28;20153;-76
2023/04/27 03:26:06;;;;;;;19.20;11.38;;;4.80;99.90;;;;;;5064917;28;20056;-76
2023/04/27 03:28:32;;;;;;;20.08;11.38;;;4.80;99.90;;;;;;5044760;28;20085;-77
2023/04/27 03:30:57;;;;;;;23.90;11.85;;;4.70;99.90;;;;;;5073450;28;20036;-76
2023/04/27 03:33:25;;;;;;;21.05;11.13;;;4.70;99.90;;;;;;5063309;28;20035;-76
2023/04/27 03:35:57;;;;;;;26.80;11.90;;;4.60;99.90;;;;;;5071809;28;20105;-77
2023/04/27 03:38:24;;;;;;;23.70;12.25;;;4.60;99.90;;;;;;5070919;28;20032;-75
2023/04/27 03:40:50;;;;;;;23.48;12.30;;;4.70;99.90;;;;;;5087755;28;20106;-76
2023/04/27 03:43:15;;;;;;;22.52;12.48;;;4.70;99.90;;;;;;5063568;28;20028;-75
2023/04/27 03:45:41;;;;;;;23.20;11.68;;;4.70;99.90;;;;;;5074150;28;20420;-76
2023/04/27 03:48:07;;;;;;;23.52;12.45;;;4.60;99.90;;;;;;5079082;28;20036;-77
2023/04/27 03:50:33;;;;;;;23.20;12.30;;;4.60;99.90;;;;;;5049947;28;20047;-75
2023/04/27 03:52:58;;;;;;;22.10;12.07;;;4.60;99.90;;;;;;5060328;28;20024;-76
2023/04/27 03:55:24;;;;;;;25.13;11.95;;;4.60;99.90;;;;;;5061890;28;20032;-76
2023/04/27 03:57:50;;;;;;;23.67;12.40;;;4.60;99.90;;;;;;5054448;28;20513;-76
2023/04/27 04:00:17;;;;;;;23.40;13.15;;;4.60;99.90;;;;;;5070115;28;20024;-75
2023/04/27 04:02:43;;;;;;;24.95;12.65;;;4.60;99.90;;;;;;5080483;28;20154;-76
2023/04/27 04:05:09;;;;;;;21.33;11.93;;;4.60;99.90;;;;;;5062405;28;20084;-76
2023/04/27 04:07:35;;;;;;;22.55;11.60;;;4.60;99.90;;;;;;5064303;28;20505;-76
2023/04/27 04:10:01;;;;;;;25.15;13.05;;;4.60;99.90;;;;;;5062180;28;20533;-75
2023/04/27 04:12:27;;;;;;;26.75;12.93;;;4.60;99.90;;;;;;5070241;28;20108;-77
2023/04/27 04:14:52;;;;;;;25.42;12.68;;;4.60;99.90;;;;;;5064883;28;20107;-77
2023/04/27 04:17:18;;;;;;;21.10;10.48;;;4.60;99.90;;;;;;5074188;28;20039;-77
2023/04/27 04:19:43;;;;;;;20.90;10.65;;;4.50;99.90;;;;;;5058201;28;20044;-76
2023/04/27 04:22:09;;;;;;;20.83;9.75;;;4.40;99.90;;;;;;5062635;28;20406;-76
2023/04/27 04:24:35;;;;;;;24.27;11.70;;;4.40;99.90;;;;;;5080537;28;20032;-76
2023/04/27 04:27:01;;;;;;;23.10;11.45;;;4.30;99.90;;;;;;5059499;28;20372;-75
2023/04/27 04:29:27;;;;;;;21.70;10.90;;;4.20;99.90;;;;;;5061261;28;20132;-76
2023/04/27 04:31:55;;;;;;;22.00;12.30;;;4.20;99.90;;;;;;5078010;28;20973;-75
2023/04/27 04:34:21;;;;;;;21.60;11.48;;;4.20;99.90;;;;;;5058974;28;20032;-75
2023/04/27 04:36:50;;;;;;;28.48;13.57;;;4.20;99.90;;;;;;5077725;28;20054;-76
2023/04/27 04:39:16;;;;;;;27.65;13.77;;;4.30;99.90;;;;;;5059366;28;20111;-76
2023/04/27 04:41:42;;;;;;;30.77;14.98;;;4.30;99.90;;;;;;5081669;28;20036;-76
2023/04/27 04:44:08;;;;;;;26.40;14.80;;;4.30;99.90;;;;;;5075222;28;20042;-76
2023/04/27 04:46:33;;;;;;;25.55;13.68;;;4.40;99.90;;;;;;5078134;28;20032;-76
2023/04/27 04:49:01;;;;;;;35.08;15.70;;;4.40;99.90;;;;;;5087810;28;20106;-76
2023/04/27 04:51:26;;;;;;;28.13;16.00;;;4.50;99.90;;;;;;5062379;28;20682;-76
2023/04/27 04:53:52;;;;;;;26.80;15.20;;;4.50;99.90;;;;;;5080394;28;20127;-76
2023/04/27 04:56:18;;;;;;;26.45;15.13;;;4.60;99.90;;;;;;5079845;28;20032;-76
2023/04/27 04:58:43;;;;;;;38.58;20.45;;;4.60;99.90;;;;;;5079880;28;20039;-77
2023/04/27 05:01:09;;;;;;;48.25;22.42;;;4.70;99.90;;;;;;5062607;28;20460;-77
2023/04/27 05:03:35;;;;;;;41.63;21.98;;;4.80;99.90;;;;;;5072131;28;20035;-76
2023/04/27 05:06:00;;;;;;;49.33;23.00;;;5.00;99.90;;;;;;5061070;28;20387;-76
2023/04/27 05:08:26;;;;;;;48.75;22.80;;;5.10;99.90;;;;;;5059761;28;20059;-76
2023/04/27 05:10:52;;;;;;;56.33;25.85;;;5.40;99.90;;;;;;5076808;28;20461;-76
2023/04/27 05:13:18;;;;;;;53.10;25.60;;;5.60;99.90;;;;;;5079553;28;20036;-76
2023/04/27 05:15:44;;;;;;;61.08;25.58;;;5.80;99.90;;;;;;5065923;28;20395;-76
2023/04/27 05:18:09;;;;;;;47.28;25.13;;;5.90;99.90;;;;;;5075052;28;20055;-76
2023/04/27 05:20:36;;;;;;;48.65;24.90;;;6.00;99.90;;;;;;5060032;28;20066;-75
2023/04/27 05:23:02;;;;;;;49.10;24.27;;;6.10;99.90;;;;;;5058567;28;20126;-77
2023/04/27 05:25:31;;;;;;;46.55;24.20;;;6.20;99.90;;;;;;5078749;28;20123;-77
2023/04/27 05:27:56;;;;;;;46.72;24.48;;;6.40;99.90;;;;;;5059142;28;20046;-77
2023/04/27 05:30:22;;;;;;;45.20;23.70;;;6.50;99.90;;;;;;5077813;28;20043;-76
2023/04/27 05:32:48;;;;;;;47.25;23.90;;;6.60;99.90;;;;;;5065453;28;20494;-76
2023/04/27 05:35:13;;;;;;;40.88;21.92;;;6.90;99.90;;;;;;5083478;28;20027;-77
2023/04/27 05:37:39;;;;;;;45.25;22.23;;;7.10;99.90;;;;;;5059312;28;20036;-76
2023/04/27 05:40:08;;;;;;;40.97;22.42;;;7.40;99.90;;;;;;5079900;28;20036;-77
2023/04/27 05:42:36;;;;;;;37.67;20.23;;;7.60;99.90;;;;;;5065233;28;20020;-76
2023/04/27 05:45:02;;;;;;;34.90;21.20;;;8.10;99.90;;;;;;5075996;28;20056;-76
2023/04/27 05:47:29;;;;;;;38.15;19.15;;;8.40;99.90;;;;;;5048845;28;20107;-76
2023/04/27 05:49:55;;;;;;;38.83;19.85;;;8.70;99.90;;;;;;5045041;28;20040;-76
2023/04/27 05:52:20;;;;;;;33.38;18.50;;;8.90;99.90;;;;;;5049166;28;20529;-76
2023/04/27 05:54:47;;;;;;;34.60;18.60;;;9.10;99.90;;;;;;5054418;28;20420;-77
2023/04/27 05:57:13;;;;;;;36.33;19.83;;;9.00;99.90;;;;;;5071016;28;20046;-75
2023/04/27 05:59:39;;;;;;;30.63;17.95;;;9.00;99.90;;;;;;5048559;28;20375;-76
2023/04/27 06:02:05;;;;;;;35.60;18.27;;;9.10;99.90;;;;;;5061585;28;20077;-76
2023/04/27 06:04:32;;;;;;;29.45;17.73;;;9.20;99.90;;;;;;5060474;28;20087;-77
2023/04/27 06:07:02;;;;;;;28.15;17.98;;;9.30;99.90;;;;;;5071810;28;20082;-76
2023/04/27 06:09:29;;;;;;;30.25;17.58;;;9.40;99.90;;;;;;5079860;28;20043;-76
2023/04/27 06:11:57;;;;;;;28.30;17.08;;;9.50;99.90;;;;;;5061026;28;20347;-77
2023/04/27 06:14:23;;;;;;;26.88;16.67;;;9.80;99.90;;;;;;5069310;28;20087;-77
2023/04/27 06:16:48;;;;;;;30.55;17.92;;;10.00;99.90;;;;;;5065841;28;20080;-75
2023/04/27 06:19:14;;;;;;;28.52;16.55;;;10.20;99.90;;;;;;5077795;28;20048;-76
2023/04/27 06:21:40;;;;;;;34.65;16.73;;;10.40;99.90;;;;;;5079814;28;20039;-76
2023/04/27 06:24:06;;;;;;;29.65;16.77;;;10.50;99.90;;;;;;5052845;28;20090;-76
2023/04/27 06:26:32;;;;;;;27.48;16.73;;;10.50;99.90;;;;;;5043883;28;20067;-76
2023/04/27 06:28:58;;;;;;;28.75;16.13;;;10.50;99.90;;;;;;5077841;28;20420;-78
2023/04/27 06:31:26;;;;;;;28.00;16.60;;;10.50;99.90;;;;;;5076899;28;20036;-75
2023/04/27 06:33:51;;;;;;;28.92;16.00;;;10.50;99.90;;;;;;5060849;28;20478;-77
2023/04/27 06:36:17;;;;;;;28.42;16.23;;;10.60;99.90;;;;;;5077371;28;20040;-76
2023/04/27 06:38:43;;;;;;;28.13;15.27;;;10.60;99.90;;;;;;5083196;28;20043;-76
2023/04/27 06:41:08;;;;;;;27.33;15.85;;;10.60;99.90;;;;;;5059208;28;20123;-76
2023/04/27 06:43:34;;;;;;;24.42;15.30;;;10.80;99.90;;;;;;5064012;28;20118;-76
2023/04/27 06:46:00;;;;;;;30.48;15.75;;;10.80;99.90;;;;;;5082521;28;20467;-77
2023/04/27 06:48:25;;;;;;;24.17;15.27;;;10.80;99.90;;;;;;5068615;28;20020;-77
2023/04/27 06:50:51;;;;;;;31.65;15.50;;;10.70;99.90;;;;;;5083173;28;20111;-78
2023/04/27 06:53:16;;;;;;;24.08;14.90;;;10.90;99.90;;;;;;5075599;28;20046;-76
2023/04/27 06:55:42;;;;;;;24.65;14.85;;;11.10;99.90;;;;;;5082136;28;20048;-76
2023/04/27 06:58:08;;;;;;;21.15;13.25;;;11.40;99.90;;;;;;5062677;28;20050;-76
2023/04/27 07:00:34;;;;;;;21.02;13.40;;;12.00;98.40;;;;;;5058913;28;20027;-77
2023/04/27 07:02:59;;;;;;;26.40;15.02;;;12.10;96.20;;;;;;5052029;28;20086;-77
2023/04/27 07:05:26;;;;;;;23.05;14.13;;;12.20;97.90;;;;;;5079101;28;20082;-77
2023/04/27 07:07:51;;;;;;;22.20;13.88;;;12.30;98.00;;;;;;5064082;28;20124;-76
2023/04/27 07:10:17;;;;;;;25.98;14.90;;;12.40;95.40;;;;;;5081642;28;20043;-76
2023/04/27 07:12:43;;;;;;;22.30;13.52;;;12.50;94.80;;;;;;5063081;28;20024;-76
2023/04/27 07:15:09;;;;;;;22.52;14.57;;;12.60;94.90;;;;;;5053553;28;20031;-77
2023/04/27 07:17:36;;;;;;;20.02;13.20;;;12.90;93.10;;;;;;4764407;28;10000323;-77
2023/04/27 07:20:04;;;;;;;22.90;12.40;;;12.80;92.90;;;;;;4012103;28;9999957;-77
2023/04/27 07:22:30;;;;;;;21.33;12.65;;;12.90;93.70;;;;;;5054231;28;20911;-77
2023/04/27 07:24:56;;;;;;;22.55;13.20;;;13.00;94.70;;;;;;5059362;28;20043;-77
2023/04/27 07:27:22;;;;;;;23.98;13.13;;;13.10;92.20;;;;;;5060748;28;20407;-78
2023/04/27 07:29:47;;;;;;;22.50;12.57;;;13.10;93.00;;;;;;5051094;28;20036;-75
2023/04/27 07:32:13;;;;;;;21.95;13.40;;;13.20;93.40;;;;;;5047505;28;20498;-76
2023/04/27 07:34:39;;;;;;;18.60;12.32;;;13.60;93.50;;;;;;5050768;28;20032;-77
2023/04/27 07:37:06;;;;;;;25.02;12.52;;;13.70;88.30;;;;;;5063834;28;20097;-76
2023/04/27 07:39:32;;;;;;;21.55;12.38;;;13.50;90.20;;;;;;5043160;28;20028;-75
2023/04/27 07:41:58;;;;;;;21.48;12.55;;;13.50;91.30;;;;;;5050067;28;20027;-76
2023/04/27 07:44:24;;;;;;;20.73;12.07;;;13.80;89.50;;;;;;5069596;28;20028;-76
2023/04/27 07:46:52;;;;;;;22.35;11.02;;;13.90;85.90;;;;;;5073280;28;20032;-76
2023/04/27 07:49:19;;;;;;;19.52;11.48;;;14.10;85.00;;;;;;5056828;28;20032;-75
2023/04/27 07:51:45;;;;;;;18.52;10.52;;;14.30;81.20;;;;;;5055879;28;20028;-76
2023/04/27 07:54:10;;;;;;;18.05;10.98;;;14.20;81.10;;;;;;5072750;28;20053;-77
2023/04/27 07:56:39;;;;;;;17.67;11.65;;;14.10;75.10;;;;;;5056002;28;20029;-76
2023/04/27 07:59:04;;;;;;;22.40;11.77;;;13.80;80.70;;;;;;5056598;28;20047;-77
2023/04/27 08:01:30;;;;;;;19.90;10.77;;;13.70;81.10;;;;;;5076751;28;20115;-76
2023/04/27 08:03:55;;;;;;;22.17;11.60;;;13.30;85.60;;;;;;5080777;28;20031;-77
2023/04/27 08:06:21;;;;;;;20.80;11.40;;;13.40;84.30;;;;;;5064435;28;20470;-77
2023/04/27 08:08:47;;;;;;;19.63;10.18;;;13.70;81.10;;;;;;5058573;28;20028;-76
2023/04/27 08:11:12;;;;;;;16.20;10.05;;;14.10;80.40;;;;;;5074704;28;20832;-76
2023/04/27 08:13:38;;;;;;;14.13;9.00;;;15.00;74.20;;;;;;5075785;28;20105;-76
2023/04/27 08:16:04;;;;;;;16.02;9.38;;;15.30;62.90;;;;;;5060877;28;20119;-76
2023/04/27 08:18:29;;;;;;;18.65;10.00;;;15.90;66.80;;;;;;5049244;28;20045;-76
2023/04/27 08:20:55;;;;;;;18.77;9.27;;;16.50;56.90;;;;;;5054995;28;20050;-76
2023/04/27 08:23:21;;;;;;;16.55;9.73;;;16.80;53.10;;;;;;5054857;28;20035;-75
2023/04/27 08:25:47;;;;;;;20.20;10.23;;;16.40;55.50;;;;;;5073042;28;20460;-75
2023/04/27 08:28:14;;;;;;;18.85;9.93;;;16.10;57.40;;;;;;5064687;28;20479;-78
2023/04/27 08:30:43;;;;;;;19.05;10.18;;;15.30;63.60;;;;;;5065908;28;20135;-76
2023/04/27 08:33:09;;;;;;;18.20;9.20;;;15.00;69.40;;;;;;5068011;28;20028;-77
2023/04/27 08:35:35;;;;;;;17.05;9.88;;;14.60;72.40;;;;;;5052609;28;20039;-76
2023/04/27 08:38:01;;;;;;;16.13;9.52;;;14.60;72.60;;;;;;5068872;28;20029;-77
2023/04/27 08:40:26;;;;;;;20.20;9.70;;;14.50;74.90;;;;;;5055887;28;20035;-78
2023/04/27 08:42:58;;;;;;;21.30;10.35;;;14.50;76.20;;;;;;5062395;28;20064;-77
2023/04/27 08:45:28;;;;;;;21.05;10.38;;;14.90;68.50;;;;;;4874612;28;10000718;-77
2023/04/27 08:47:54;;;;;;;19.80;9.10;;;14.60;71.50;;;;;;5073419;28;20243;-78
2023/04/27 08:50:20;;;;;;;19.45;9.90;;;14.60;73.30;;;;;;5041787;28;20048;-77
2023/04/27 08:52:46;;;;;;;16.92;8.82;;;14.50;74.90;;;;;;5050868;28;20135;-77
2023/04/27 08:55:12;;;;;;;15.60;9.15;;;14.40;77.30;;;;;;5059170;28;20032;-76
2023/04/27 08:57:38;;;;;;;17.90;8.90;;;14.60;75.20;;;;;;5061766;28;20125;-77
2023/04/27 09:00:14;;;;;;;14.98;8.57;;;14.70;68.80;;;;;;5070727;28;20050;-75
2023/04/27 09:02:46;;;;;;;19.50;9.27;;;14.80;69.80;;;;;;5061868;28;20562;-76
2023/04/27 09:05:19;;;;;;;12.20;7.55;;;14.50;71.00;;;;;;5061143;28;20815;-78
2023/04/27 09:08:03;;;;;;;17.13;8.77;;;14.50;71.20;;;;;;5084160;28;20496;-77
2023/04/27 09:10:29;;;;;;;14.63;8.02;;;14.70;70.90;;;;;;5083024;28;20048;-77
2023/04/27 09:12:59;;;;;;;17.52;8.77;;;14.80;68.90;;;;;;5059720;28;20012;-78
2023/04/27 09:15:26;;;;;;;14.98;8.25;;;14.90;67.30;;;;;;5073397;28;20024;-77
2023/04/27 09:17:58;;;;;;;11.80;7.93;;;14.90;71.80;;;;;;5053559;28;20340;-77
2023/04/27 09:20:25;;;;;;;16.00;8.00;;;15.50;69.10;;;;;;5057342;28;20113;-77
2023/04/27 09:22:54;;;;;;;14.20;7.97;;;16.10;56.40;;;;;;5059985;28;20115;-78
2023/04/27 09:25:28;;;;;;;15.23;7.22;;;16.70;55.90;;;;;;5071497;28;20035;-78
2023/04/27 09:27:54;;;;;;;17.98;8.52;;;17.00;51.40;;;;;;5077152;28;20507;-78
2023/04/27 09:30:20;;;;;;;14.70;7.28;;;17.10;51.30;;;;;;5054191;28;20479;-76
2023/04/27 09:32:57;;;;;;;16.20;7.53;;;17.40;51.10;;;;;;5065189;28;20076;-79
2023/04/27 09:35:31;;;;;;;13.90;7.05;;;16.70;50.10;;;;;;5066476;28;20032;-77
2023/04/27 09:37:57;;;;;;;16.92;8.23;;;15.80;52.80;;;;;;5058385;28;20153;-77
2023/04/27 09:40:28;;;;;;;15.02;7.32;;;15.30;55.80;;;;;;5065490;28;20055;-77
2023/04/27 09:42:55;;;;;;;;;;;15.10;56.30;;;;;;5063504;28;20024;-77
2023/04/27 09:45:22;;;;;;;15.43;7.57;;;14.60;58.20;;;;;;5059607;28;19974;-77
2023/04/27 09:47:48;;;;;;;12.63;7.18;;;14.30;60.80;;;;;;5081109;28;20071;-77
2023/04/27 09:50:14;;;;;;;13.32;6.50;;;14.50;64.60;;;;;;5061776;28;20056;-78
2023/04/27 09:52:40;;;;;;;14.10;7.07;;;14.80;66.40;;;;;;5078063;28;20343;-78
2023/04/27 09:55:10;;;;;;;12.45;7.18;;;14.80;59.10;;;;;;5078969;28;20036;-77
2023/04/27 09:57:38;;;;;;;11.32;7.30;;;15.00;62.50;;;;;;5075144;28;20167;-78
2023/04/27 10:00:33;;;;;;;12.50;7.32;;;15.20;59.80;;;;;;5067675;28;21695;-77
2023/04/27 10:03:23;;;;;;;12.45;7.55;;;15.00;56.30;;;;;;5076740;28;20032;-78
2023/04/27 10:06:14;;;;;;;18.67;7.60;;;14.90;61.70;;;;;;5049478;28;20117;-78
2023/04/27 10:08:40;;;;;;;13.45;7.40;;;14.60;68.90;;;;;;5076626;28;20057;-77
2023/04/27 10:11:17;;;;;;;12.07;7.35;;;14.40;61.50;;;;;;5060633;28;20410;-79
2023/04/27 10:13:54;;;;;;;11.05;7.90;;;14.50;60.60;;;;;;5072830;28;20114;-78
2023/04/27 10:16:20;;;;;;;13.85;7.00;;;15.20;59.70;;;;;;5048316;28;20032;-77
2023/04/27 10:18:54;;;;;;;12.93;7.00;;;15.50;54.10;;;;;;5065399;28;20143;-76
2023/04/27 10:21:20;;;;;;;13.07;7.28;;;16.10;53.20;;;;;;5068160;28;20036;-78
2023/04/27 10:23:47;;;;;;;12.65;7.10;;;16.10;51.70;;;;;;5059344;28;20028;-78
2023/04/27 10:26:21;;;;;;;14.65;6.78;;;16.00;57.20;;;;;;5052914;28;20780;-75
2023/04/27 10:28:56;;;;;;;14.27;7.45;;;16.50;55.30;;;;;;5078380;28;20317;-78
2023/04/27 10:31:28;;;;;;;12.45;7.15;;;16.70;52.60;;;;;;5079168;28;20122;-77
2023/04/27 10:34:14;;;;;;;15.32;7.13;;;16.50;51.80;;;;;;5055658;28;20615;-78
2023/04/27 10:36:40;;;;;;;18.70;8.10;;;16.20;51.30;;;;;;5061081;28;20395;-76
2023/04/27 10:39:32;;;;;;;20.15;7.55;;;16.10;51.70;;;;;;5062706;28;20027;-77
2023/04/27 10:41:58;;;;;;;14.48;7.55;;;16.00;52.90;;;;;;5080278;28;20424;-77
2023/04/27 10:44:29;;;;;;;14.73;6.97;;;15.80;54.80;;;;;;5077877;28;20142;-78
2023/04/27 10:46:58;;;;;;;14.30;7.55;;;15.40;53.70;;;;;;5081078;28;20027;-78
2023/04/27 10:49:27;;;;;;;13.05;7.03;;;15.10;55.00;;;;;;5076916;28;20024;-78
2023/04/27 10:51:53;;;;;;;16.63;7.63;;;14.70;59.00;;;;;;5076118;28;20016;-78
2023/04/27 10:54:18;;;;;;;15.20;7.22;;;14.50;58.80;;;;;;5053669;28;20090;-77
2023/04/27 10:56:44;;;;;;;14.25;6.72;;;14.40;60.20;;;;;;5049695;28;20032;-78
2023/04/27 10:59:10;;;;;;;14.15;7.43;;;14.20;62.50;;;;;;5067077;28;20032;-77
2023/04/27 11:01:36;;;;;;;13.07;7.28;;;13.90;60.20;;;;;;5049580;28;20451;-77
2023/04/27 11:04:02;;;;;;;13.02;7.90;;;13.80;66.60;;;;;;5049938;28;20119;-78
2023/04/27 11:06:29;;;;;;;14.15;7.03;;;13.70;73.30;;;;;;5069018;28;20024;-77
2023/04/27 11:08:55;;;;;;;14.82;7.00;;;13.90;71.60;;;;;;5071401;28;20031;-78
2023/04/27 11:11:21;;;;;;;16.00;7.57;;;14.60;66.10;;;;;;5057261;28;20135;-78
2023/04/27 11:13:48;;;;;;;12.88;6.72;;;15.50;60.40;;;;;;5058382;28;20102;-78
2023/04/27 11:16:15;;;;;;;11.02;6.60;;;16.50;52.10;;;;;;5057070;28;20111;-78
2023/04/27 11:18:41;;;;;;;12.82;6.68;;;17.40;48.40;;;;;;5075208;28;20054;-79
2023/04/27 11:21:17;;;;;;;15.60;6.93;;;17.00;48.50;;;;;;5058885;28;20046;-77
2023/04/27 11:23:42;;;;;;;14.13;6.88;;;16.70;49.50;;;;;;5056797;28;20036;-78
2023/04/27 11:26:28;;;;;;;12.60;7.05;;;16.30;51.40;;;;;;5059469;28;20032;-77
2023/04/27 11:29:03;;;;;;;13.52;7.57;;;15.80;51.10;;;;;;5071371;28;20490;-78
2023/04/27 11:31:58;;;;;;;16.50;7.38;;;15.60;56.10;;;;;;5056826;28;20035;-78
2023/04/27 11:34:25;;;;;;;15.55;7.38;;;15.90;52.80;;;;;;5057048;28;20140;-79
2023/04/27 11:37:05;;;;;;;12.70;7.22;;;15.90;55.60;;;;;;5078935;28;20035;-78
2023/04/27 11:39:38;;;;;;;17.20;7.80;;;16.00;55.00;;;;;;5057178;28;20032;-78
2023/04/27 11:42:18;;;;;;;15.20;7.40;;;15.60;51.40;;;;;;5077451;28;20090;-79
2023/04/27 11:44:53;;;;;;;15.10;7.97;;;15.30;56.10;;;;;;5061808;28;20036;-78
2023/04/27 11:47:20;;;;;;;13.02;7.13;;;15.50;55.60;;;;;;5077533;28;20460;-78
2023/04/27 11:49:47;;;;;;;15.65;8.52;;;15.20;54.40;;;;;;5060123;28;20043;-77
2023/04/27 11:52:14;;;;;;;16.45;8.13;;;14.90;56.30;;;;;;5058853;28;20051;-79
2023/04/27 11:54:47;;;;;;;13.25;7.47;;;14.60;59.00;;;;;;5055257;28;20036;-78
2023/04/27 11:57:12;;;;;;;15.40;7.75;;;14.60;60.40;;;;;;5051088;28;20413;-78
2023/04/27 11:59:38;;;;;;;18.48;8.00;;;14.50;70.20;;;;;;5077920;28;20418;-79
2023/04/27 12:02:03;;;;;;;13.45;8.20;;;14.40;70.20;;;;;;5081150;28;20026;-78
2023/04/27 12:04:29;;;;;;;17.83;8.23;;;14.30;63.70;;;;;;5079324;28;20028;-79
2023/04/27 12:06:55;;;;;;;14.60;8.27;;;14.10;69.90;;;;;;5052266;28;20085;-77
2023/04/27 12:09:21;;;;;;;17.15;8.25;;;14.00;70.40;;;;;;5073020;28;20032;-78
2023/04/27 12:11:47;;;;;;;16.35;8.40;;;13.90;70.10;;;;;;5069049;28;20032;-78
2023/04/27 12:14:12;;;;;;;12.38;8.02;;;13.90;69.60;;;;;;5059766;28;20582;-78
2023/04/27 12:16:38;;;;;;;14.30;7.88;;;14.10;71.60;;;;;;5078405;28;20032;-78
2023/04/27 12:19:04;;;;;;;15.90;7.82;;;14.40;72.80;;;;;;5075681;28;20056;-78
2023/04/27 12:21:31;;;;;;;12.32;7.57;;;14.70;59.10;;;;;;5060897;28;20369;-78
2023/04/27 12:23:56;;;;;;;14.57;7.90;;;15.10;66.30;;;;;;5043152;28;20529;-78
2023/04/27 12:26:22;;;;;;;15.02;8.07;;;15.30;57.50;;;;;;5059513;28;20038;-78
2023/04/27 12:28:47;;;;;;;13.07;8.30;;;15.20;57.50;;;;;;5081593;28;20443;-79
2023/04/27 12:31:21;;;;;;;16.58;7.82;;;15.20;60.00;;;;;;5053178;28;20117;-79
2023/04/27 12:33:48;;;;;;;11.23;6.95;;;15.30;60.70;;;;;;5064539;28;20105;-78
2023/04/27 12:36:13;;;;;;;13.93;7.32;;;15.70;58.20;;;;;;5049195;28;20134;-78
2023/04/27 12:38:39;;;;;;;11.82;7.00;;;16.20;52.60;;;;;;5044847;28;20036;-79